Terminal Aerodrome Forecast
Issued by NWS

Home | Current Version | Previous Version | Text Only | Print | Product List | Glossary On
Versions: 1 2 3 4 5 6 7 8 9 10 11 12 13 14 15 16 17 18 19 20 21 22 23 24 25 26 27 28
594
FTUS41 KPHI 291747
TAFMIV
TAF
KMIV 291747Z 2918/3018 07009KT P6SM OVC015
     FM292300 04006KT P6SM OVC007
     FM300900 03006KT P6SM OVC015
     FM301200 06009KT P6SM BKN050=

USA.gov is the U.S. government's official web portal to all federal, state and local government web resources and services.